Tuesday, January 22, 2019, 4:42 PM EST
Back to Local

KLEW, Auburn-lewiston

Location: Auburn, ME, United States Lat: 44.05
Local Time: 4:42 PM EST (21:42 GMT) Lon: -70.283
Time Zone: US/Eastern Elev: 288 ft

Show me the last for .
Show Decoded

2019-01-22 15:56 METAR KLEW 222056Z AUTO 31016G20KT 10SM CLR M07/M21 A3046 RMK AO2 SLP333
                 T10721211 51030 FZRANO =
2019-01-22 14:56 METAR KLEW 221956Z AUTO 30012G18KT 10SM CLR M07/M21 A3043 RMK AO2 SLP323
                 T10671211 FZRANO =
2019-01-22 13:56 METAR KLEW 221856Z AUTO 31016G24KT 10SM CLR M07/M23 A3041 RMK AO2 SLP316
                 T10671228 FZRANO =
2019-01-22 12:56 METAR KLEW 221756Z AUTO 30016G22KT 10SM CLR M08/M23 A3037 RMK AO2 SLP303 60000
                 T10781233 11078 21161 58001 FZRANO =
2019-01-22 11:56 METAR KLEW 221656Z AUTO 32017G25KT 10SM CLR M09/M24 A3038 RMK AO2 SNE00 SLP304
                 P0000 T10891244 FZRANO =
2019-01-22 10:56 METAR KLEW 221556Z AUTO 33016G24KT 9SM -SN CLR M10/M24 A3039 RMK AO2 PK WND
                 30027/1535 SNB45 SLP308 P0000 T11001239 FZRANO =
2019-01-22 09:56 METAR KLEW 221456Z AUTO 31009KT 10SM CLR M12/M24 A3037 RMK AO2 SLP303 60000
                 T11171239 51030 FZRANO =
2019-01-22 09:45 METAR KLEW 221445Z AUTO 30012G18KT 2 1/2SM HZ CLR M12/M23 A3036 RMK AO2 FZRANO =
2019-01-22 08:56 METAR KLEW 221356Z AUTO 30016KT 10SM CLR M13/M24 A3033 RMK AO2 PK WND 30029/1304
                 SLP289 T11331244 FZRANO =
2019-01-22 07:56 METAR KLEW 221256Z AUTO 31018G28KT 10SM CLR M16/M24 A3028 RMK AO2 PK WND
                 31030/1216 SNB14E27 SLP272 P0000 T11561244 FZRANO =
2019-01-22 06:56 METAR KLEW 221156Z AUTO 31016G23KT 10SM CLR M16/M24 A3024 RMK AO2 PK WND
                 31027/1138 SNE06 PRESRR SLP257 P0000 60000 T11611244 11156 21167 51037 FZRANO =
2019-01-22 05:56 METAR KLEW 221056Z AUTO 30015G28KT 6SM -SN CLR M16/M24 A3019 RMK AO2 PK WND
                 32028/1052 SNB52 SLP243 P0000 T11561239 FZRANO =
2019-01-22 04:56 METAR KLEW 220956Z AUTO 33010KT 10SM CLR M16/M25 A3018 RMK AO2 SNE0858 SLP236
                 P0000 T11611250 FZRANO =
2019-01-22 03:56 METAR KLEW 220856Z AUTO 31019G25KT 5SM -SN CLR M16/M24 A3013 RMK AO2 SNB48
                 SLP220 P0000 60000 T11611244 51039 FZRANO =
2019-01-22 02:56 METAR KLEW 220756Z AUTO 31009G19KT 10SM CLR M17/M24 A3009 RMK AO2 SLP207
                 T11671244 FZRANO =
2019-01-22 01:56 METAR KLEW 220656Z AUTO 31012G20KT 10SM FEW110 M16/M23 A3006 RMK AO2 PK WND
                 32029/0614 SNB16E27 SLP196 P0000 T11611233 FZRANO =
2019-01-22 00:56 METAR KLEW 220556Z AUTO 32012G21KT 10SM BKN090 M16/M23 A3001 RMK AO2 SLP180
                 60000 T11611228 11156 21172 51024 FZRANO =
2019-01-21 23:56 METAR KLEW 220456Z AUTO 30010G16KT 10SM SCT055 M16/M22 A3000 RMK AO2 SNE37
                 SLP176 P0000 T11611222 FZRANO =
2019-01-21 22:56 METAR KLEW 220356Z AUTO 31008G18KT 9SM -SN OVC070 M16/M21 A2997 RMK AO2 SLP168
                 P0000 T11561211 411281178 FZRANO =
2019-01-21 21:56 METAR KLEW 220256Z AUTO 29009G16KT 6SM -SN OVC055 M17/M21 A2994 RMK AO2 SLP156
                 P0000 60000 T11671206 53021 FZRANO =
2019-01-21 20:56 METAR KLEW 220156Z AUTO 30013KT 4SM -SN BKN040 OVC047 M17/M21 A2991 RMK AO2
                 SLP146 P0000 T11671206 FZRANO =
2019-01-21 19:56 METAR KLEW 220056Z AUTO 31011G22KT 8SM -SN FEW043 SCT050 OVC090 M17/M23 A2989
                 RMK AO2 SLP140 P0000 T11721228 FZRANO =
2019-01-21 18:56 METAR KLEW 212356Z AUTO 31010KT 9SM -SN FEW047 OVC100 M17/M24 A2988 RMK AO2 PK
                 WND 33026/2325 SLP134 P0000 60000 T11721239 11156 21178 51037 FZRANO =
2019-01-21 17:56 METAR KLEW 212256Z AUTO 33023G26KT 6SM -SN BKN065 OVC080 M18/M24 A2985 RMK AO2
                 PK WND 34027/2256 SLP124 P0000 T11781244 FZRANO =
2019-01-21 16:56 METAR KLEW 212156Z AUTO 33014G19KT 5SM -SN FEW048 OVC060 M18/M23 A2982 RMK AO2
                 SLP114 P0000 T11781233 FZRANO =

Support USWX by starting your Amazon purchase here.